Tunnerville, South Dakota
Current Conditions -  °F | °C
As of 10:14 AM on Thursday 30 Oct 2014 (Local Time) from KCNB Reporting Station
Overcast Overcast  
Wind Chill: 38°   Ceiling: 6000
Heat Index: 41°   Visibility: 10mi
Dew Point: 39°   Wind: 6mph
Humidity: 93%   Direction: 310°NW
Pressure: 30.1"   Gusts: NA
Location:  44.7895°N, 96.7201°W
Report Text: KCNB 301514Z AUTO 31005KT 10SM SCT050 OVC060 05/04 A3010 RMK AO2 T00520041
Loading
Personal Weather Stations






























Interactive Weather Map
Tropical Storm Tracking
New forecast layout! Learn more

10-Day Weather Forecast

Advertisements
Track Severe Weather on mobile